Time;durP1;ratioP1;P1;durP2;ratioP2;P2;SDS_P1;SDS_P2;PMS_P1;PMS_P2;Temp;Humidity;BMP_temperature;BMP_pressure;BME280_temperature;BME280_humidity;BME280_pressure;Samples;Min_cycle;Max_cycle;Signal;HPM_P1;HPM_P2
2021/07/14 00:01:27;;;;;;;28.80;15.30;;;19.20;99.90;;;;;;4994897;28;20206;-51
2021/07/14 00:03:55;;;;;;;23.73;15.60;;;19.00;99.90;;;;;;4994178;28;20238;-51
2021/07/14 00:06:34;;;;;;;32.63;17.57;;;19.00;99.90;;;;;;4992552;28;20196;-51
2021/07/14 00:09:02;;;;;;;29.60;18.30;;;19.00;99.90;;;;;;4995110;28;20721;-51
2021/07/14 00:11:36;;;;;;;30.67;16.97;;;18.90;99.90;;;;;;4993264;28;20204;-51
2021/07/14 00:22:37;;;;;;;32.90;17.77;;;19.00;99.90;;;;;;4997873;28;20307;-51
2021/07/14 00:25:11;;;;;;;34.37;17.87;;;18.80;99.90;;;;;;4997263;28;20733;-51
2021/07/14 00:27:41;;;;;;;34.70;19.27;;;18.80;99.90;;;;;;4997045;28;20302;-51
2021/07/14 00:30:14;;;;;;;30.10;18.17;;;18.90;99.90;;;;;;4998956;28;20319;-50
2021/07/14 00:32:41;;;;;;;32.07;17.73;;;18.90;99.90;;;;;;4997479;28;20229;-51
2021/07/14 00:35:11;;;;;;;38.70;18.43;;;18.90;99.90;;;;;;4998598;28;20519;-51
2021/07/14 00:37:38;;;;;;;37.33;19.47;;;18.90;99.90;;;;;;4995188;28;20295;-51
2021/07/14 00:40:10;;;;;;;32.07;18.27;;;18.80;99.90;;;;;;4997300;28;20625;-51
2021/07/14 00:42:37;;;;;;;32.07;17.83;;;18.90;99.90;;;;;;4997242;28;20343;-51
2021/07/14 00:45:06;;;;;;;33.07;18.33;;;18.80;99.90;;;;;;4998534;28;20209;-51
2021/07/14 00:47:34;;;;;;;31.67;18.03;;;18.80;99.90;;;;;;4996212;28;20277;-51
2021/07/14 00:50:02;;;;;;;35.13;17.30;;;18.90;99.90;;;;;;4995845;28;20748;-51
2021/07/14 00:52:29;;;;;;;28.70;16.90;;;18.90;99.90;;;;;;4997322;28;20230;-51
2021/07/14 00:54:58;;;;;;;30.53;17.07;;;18.80;99.90;;;;;;4995766;28;20462;-51
2021/07/14 00:57:27;;;;;;;33.03;18.03;;;18.80;99.90;;;;;;4993961;28;20284;-50
2021/07/14 00:59:55;;;;;;;31.17;15.03;;;18.80;99.90;;;;;;4999083;28;20699;-51
2021/07/14 01:02:24;;;;;;;30.83;15.73;;;18.80;99.90;;;;;;4994909;28;20332;-51
2021/07/14 01:04:56;;;;;;;27.40;16.17;;;18.80;99.90;;;;;;4996372;28;20735;-50
2021/07/14 01:07:36;;;;;;;33.33;16.47;;;18.70;99.90;;;;;;4996050;28;20494;-51
2021/07/14 01:10:29;;;;;;;28.57;16.47;;;18.70;99.90;;;;;;4996478;28;20310;-51
2021/07/14 01:13:21;;;;;;;33.50;17.67;;;18.70;99.90;;;;;;4995382;28;20247;-51
2021/07/14 01:15:54;;;;;;;29.63;15.97;;;18.80;99.90;;;;;;4995514;28;20687;-51
2021/07/14 01:18:28;;;;;;;33.20;17.57;;;18.80;99.90;;;;;;4997575;28;20647;-51
2021/07/14 01:20:54;;;;;;;28.33;16.17;;;18.90;99.90;;;;;;4996783;28;20334;-51
2021/07/14 01:23:40;;;;;;;28.33;16.43;;;19.00;99.90;;;;;;4996315;28;20292;-50
2021/07/14 01:26:36;;;;;;;27.77;16.63;;;18.90;99.90;;;;;;4993431;28;20209;-51
2021/07/14 01:29:06;;;;;;;40.80;17.47;;;18.80;99.90;;;;;;4995030;28;20310;-50
2021/07/14 01:31:35;;;;;;;27.77;16.87;;;18.90;99.90;;;;;;4995712;28;20503;-51
2021/07/14 01:34:06;;;;;;;23.70;15.03;;;18.80;99.90;;;;;;4996485;28;20298;-51
2021/07/14 01:36:36;;;;;;;27.27;16.40;;;18.80;99.90;;;;;;4994353;28;20890;-51
2021/07/14 01:39:05;;;;;;;28.70;16.07;;;18.90;99.90;;;;;;4996469;28;20324;-50
2021/07/14 01:41:36;;;;;;;28.27;15.40;;;18.90;99.90;;;;;;4994845;28;20254;-51
2021/07/14 01:44:04;;;;;;;25.90;17.07;;;18.90;99.90;;;;;;4996424;28;20303;-51
2021/07/14 01:46:35;;;;;;;28.43;15.60;;;18.90;99.90;;;;;;4996826;28;20208;-51
2021/07/14 01:49:12;;;;;;;30.20;16.87;;;18.90;99.90;;;;;;4995125;28;20216;-51
2021/07/14 01:51:46;;;;;;;29.90;16.13;;;19.00;99.90;;;;;;4996380;28;20718;-51
2021/07/14 01:54:15;;;;;;;27.20;16.80;;;19.00;99.90;;;;;;4996444;28;20295;-51
2021/07/14 01:56:43;;;;;;;34.80;17.23;;;18.90;99.90;;;;;;4995731;28;20208;-51
2021/07/14 01:59:11;;;;;;;30.73;16.17;;;19.00;99.90;;;;;;4996458;28;20469;-51
2021/07/14 02:01:40;;;;;;;30.87;16.80;;;18.90;99.90;;;;;;4994533;28;20315;-51
2021/07/14 02:07:13;;;;;;;32.83;17.23;;;18.80;99.90;;;;;;4995623;28;20240;-51
2021/07/14 02:09:42;;;;;;;27.83;15.63;;;18.90;99.90;;;;;;4994431;28;20219;-51
2021/07/14 02:12:16;;;;;;;32.23;17.07;;;18.80;99.90;;;;;;4993967;28;20278;-51
2021/07/14 02:14:59;;;;;;;32.53;17.23;;;18.80;99.90;;;;;;4998180;28;20237;-51
2021/07/14 02:17:30;;;;;;;35.40;17.43;;;18.90;99.90;;;;;;4996888;28;20329;-52
2021/07/14 02:20:09;;;;;;;33.50;17.60;;;18.80;99.90;;;;;;4996211;28;20320;-51
2021/07/14 02:22:36;;;;;;;32.80;17.83;;;18.80;99.90;;;;;;4995161;28;20208;-51
2021/07/14 02:25:05;;;;;;;32.77;18.17;;;18.90;99.90;;;;;;4994884;28;20250;-51
2021/07/14 02:27:32;;;;;;;29.60;17.97;;;18.80;99.90;;;;;;4991871;28;20286;-51
2021/07/14 02:29:58;;;;;;;30.63;17.20;;;18.80;99.90;;;;;;4996595;28;20767;-51
2021/07/14 02:32:26;;;;;;;31.00;17.77;;;18.70;99.90;;;;;;4994463;28;20791;-51
2021/07/14 02:34:54;;;;;;;31.77;17.63;;;18.70;99.90;;;;;;4995209;28;20644;-51
2021/07/14 02:37:39;;;;;;;34.37;16.87;;;18.80;99.90;;;;;;4995450;28;20304;-51
2021/07/14 02:40:07;;;;;;;35.40;17.63;;;18.70;99.90;;;;;;4994298;28;20323;-51
2021/07/14 02:42:37;;;;;;;29.70;16.83;;;18.60;99.90;;;;;;4995734;28;20209;-52
2021/07/14 02:45:06;;;;;;;32.80;17.37;;;18.70;99.90;;;;;;4994533;28;20232;-51
2021/07/14 02:47:37;;;;;;;33.80;16.90;;;18.80;99.90;;;;;;4995128;28;20677;-51
2021/07/14 02:50:14;;;;;;;27.20;16.90;;;18.90;99.90;;;;;;4993899;28;20220;-51
2021/07/14 02:52:47;;;;;;;29.87;15.63;;;18.70;99.90;;;;;;4993778;28;20303;-51
2021/07/14 02:55:19;;;;;;;32.43;15.33;;;18.70;99.90;;;;;;4996304;28;20306;-51
2021/07/14 02:57:53;;;;;;;36.23;16.37;;;18.60;99.90;;;;;;5009894;28;20198;-51
2021/07/14 03:00:22;;;;;;;29.73;16.83;;;18.70;99.90;;;;;;4994239;28;20295;-51
2021/07/14 03:02:50;;;;;;;31.43;16.37;;;18.80;99.90;;;;;;4993472;28;20316;-51
2021/07/14 03:05:18;;;;;;;32.07;15.37;;;18.80;99.90;;;;;;4990929;28;20410;-51
2021/07/14 03:07:47;;;;;;;31.87;16.43;;;18.60;99.90;;;;;;4993983;28;20584;-51
2021/07/14 03:10:18;;;;;;;30.00;16.67;;;18.60;99.90;;;;;;4992724;28;20306;-51
2021/07/14 03:12:50;;;;;;;29.40;16.20;;;18.60;99.90;;;;;;4993647;28;20228;-51
2021/07/14 03:15:17;;;;;;;33.93;15.50;;;18.70;99.90;;;;;;4995956;28;20201;-51
2021/07/14 03:17:45;;;;;;;27.93;15.03;;;18.80;99.90;;;;;;4996823;28;20611;-51
2021/07/14 03:20:15;;;;;;;25.70;15.77;;;18.80;99.90;;;;;;4993328;28;20676;-51
2021/07/14 03:22:45;;;;;;;27.47;14.23;;;18.70;99.90;;;;;;4992673;28;20310;-51
2021/07/14 03:25:13;;;;;;;27.97;14.63;;;18.70;99.90;;;;;;4996152;28;20380;-51
2021/07/14 03:27:42;;;;;;;27.77;14.17;;;18.70;99.90;;;;;;4993835;28;20241;-51
2021/07/14 03:30:09;;;;;;;25.53;12.80;;;18.50;99.90;;;;;;4994255;28;20748;-51
2021/07/14 03:32:41;;;;;;;29.50;14.77;;;18.50;99.90;;;;;;4992862;28;20245;-52
2021/07/14 03:35:09;;;;;;;20.97;12.40;;;18.60;99.90;;;;;;4995185;28;20280;-51
2021/07/14 03:37:37;;;;;;;24.00;13.03;;;18.70;99.90;;;;;;4992226;28;20255;-51
2021/07/14 03:40:06;;;;;;;22.27;13.07;;;18.70;99.90;;;;;;4994277;28;20875;-51
2021/07/14 03:42:34;;;;;;;26.90;14.53;;;18.80;99.90;;;;;;4991811;28;20233;-51
2021/07/14 03:45:01;;;;;;;23.90;14.37;;;18.80;99.90;;;;;;4995425;28;20708;-51
2021/07/14 03:47:32;;;;;;;23.50;13.50;;;18.80;99.90;;;;;;4991460;28;20289;-51
2021/07/14 03:50:00;;;;;;;23.80;12.83;;;18.70;99.90;;;;;;4994568;28;20289;-51
2021/07/14 03:52:29;;;;;;;30.77;14.97;;;18.70;99.90;;;;;;4992725;28;20780;-51
2021/07/14 03:54:57;;;;;;;23.70;13.67;;;18.80;99.90;;;;;;4995430;28;20293;-51
2021/07/14 03:57:23;;;;;;;23.03;13.57;;;18.80;99.90;;;;;;4996135;28;20716;-50
2021/07/14 03:59:50;;;;;;;22.60;13.27;;;18.70;99.90;;;;;;4998166;28;20288;-51
2021/07/14 04:02:20;;;;;;;24.90;14.17;;;18.60;99.90;;;;;;4996911;28;20212;-51
2021/07/14 04:04:49;;;;;;;24.23;14.00;;;18.60;99.90;;;;;;4996511;28;20259;-51
2021/07/14 04:07:22;;;;;;;26.07;13.30;;;18.60;99.90;;;;;;4996712;28;20297;-51
2021/07/14 04:09:49;;;;;;;24.83;13.97;;;18.70;99.90;;;;;;4996931;28;20203;-52
2021/07/14 04:12:16;;;;;;;25.23;13.47;;;18.60;99.90;;;;;;4996218;28;20312;-51
2021/07/14 04:14:44;;;;;;;22.30;13.23;;;18.60;99.90;;;;;;4998171;28;20766;-51
2021/07/14 04:17:11;;;;;;;20.40;12.33;;;18.70;99.90;;;;;;4995189;28;20439;-51
2021/07/14 04:19:40;;;;;;;30.27;13.20;;;18.70;99.90;;;;;;4995621;28;20193;-51
2021/07/14 04:22:08;;;;;;;22.60;12.70;;;18.70;99.90;;;;;;4996319;28;20289;-51
2021/07/14 04:24:35;;;;;;;22.33;14.13;;;18.70;99.90;;;;;;4996898;28;20838;-51
2021/07/14 04:27:03;;;;;;;26.60;12.67;;;18.70;99.90;;;;;;4995676;28;20338;-51
2021/07/14 04:29:30;;;;;;;21.30;12.90;;;18.80;99.90;;;;;;4995378;28;20348;-51
2021/07/14 04:31:56;;;;;;;21.27;13.00;;;18.70;99.90;;;;;;4995808;28;20271;-51
2021/07/14 04:34:23;;;;;;;22.17;12.83;;;18.70;99.90;;;;;;4996184;28;20352;-51
2021/07/14 04:36:51;;;;;;;24.40;13.67;;;18.70;99.90;;;;;;4994873;28;20678;-51
2021/07/14 04:39:18;;;;;;;26.43;13.03;;;18.70;99.90;;;;;;4996045;28;20292;-51
2021/07/14 04:41:45;;;;;;;19.83;12.13;;;18.70;99.90;;;;;;4994983;28;20509;-51
2021/07/14 04:44:18;;;;;;;17.07;12.57;;;18.70;99.90;;;;;;4997822;28;20296;-51
2021/07/14 04:46:45;;;;;;;22.80;12.50;;;18.70;99.90;;;;;;4996697;28;20296;-51
2021/07/14 04:49:12;;;;;;;14.33;10.77;;;18.80;99.90;;;;;;4994945;28;20209;-51
2021/07/14 04:51:39;;;;;;;17.53;11.77;;;18.70;99.90;;;;;;4998266;28;20217;-51
2021/07/14 04:54:05;;;;;;;16.43;12.80;;;18.70;99.90;;;;;;4995276;28;20335;-51
2021/07/14 04:56:34;;;;;;;17.33;10.67;;;18.70;99.90;;;;;;4995544;28;20644;-51
2021/07/14 04:59:00;;;;;;;19.20;13.23;;;18.80;99.90;;;;;;4997545;28;20684;-51
2021/07/14 05:01:27;;;;;;;18.87;12.90;;;18.90;99.90;;;;;;4992185;28;20328;-50
2021/07/14 05:03:54;;;;;;;17.27;11.07;;;18.80;99.90;;;;;;4995634;28;20315;-50
2021/07/14 05:06:21;;;;;;;16.17;10.80;;;18.70;99.90;;;;;;4996891;28;20199;-50
2021/07/14 05:08:48;;;;;;;19.17;11.00;;;18.70;99.90;;;;;;4995443;28;20253;-50
2021/07/14 05:11:15;;;;;;;16.10;11.47;;;18.80;99.90;;;;;;4992737;28;20387;-50
2021/07/14 05:13:42;;;;;;;20.77;11.27;;;18.80;99.90;;;;;;4997571;28;20198;-51
2021/07/14 05:16:09;;;;;;;16.33;11.50;;;18.80;99.90;;;;;;4995169;28;20203;-51
2021/07/14 05:18:36;;;;;;;14.53;10.43;;;18.90;99.90;;;;;;4997266;28;20237;-50
2021/07/14 05:21:04;;;;;;;17.07;10.73;;;19.00;99.90;;;;;;4994745;28;20304;-50
2021/07/14 05:23:30;;;;;;;18.83;11.33;;;18.90;99.90;;;;;;4996049;28;20301;-51
2021/07/14 05:25:58;;;;;;;13.90;9.77;;;18.70;99.90;;;;;;4993914;28;20309;-50
2021/07/14 05:28:25;;;;;;;15.07;10.07;;;18.80;99.90;;;;;;4997648;28;20207;-51
2021/07/14 05:30:52;;;;;;;14.47;10.07;;;18.90;99.90;;;;;;4992524;28;20278;-51
2021/07/14 05:33:20;;;;;;;14.07;9.50;;;19.00;99.90;;;;;;4995465;28;20198;-50
2021/07/14 05:35:47;;;;;;;14.43;11.17;;;18.90;99.90;;;;;;4995008;28;20652;-51
2021/07/14 05:38:21;;;;;;;15.47;10.87;;;18.90;99.90;;;;;;4996476;28;20655;-51
2021/07/14 05:40:49;;;;;;;19.40;10.70;;;18.90;99.90;;;;;;4994766;28;20746;-51
2021/07/14 05:43:17;;;;;;;17.53;10.00;;;18.90;99.90;;;;;;4995114;28;20315;-51
2021/07/14 05:45:45;;;;;;;16.67;10.33;;;19.00;99.90;;;;;;4995520;28;20701;-51
2021/07/14 05:48:12;;;;;;;18.00;10.23;;;19.00;99.90;;;;;;4998536;28;20287;-51
2021/07/14 05:50:42;;;;;;;18.13;11.27;;;19.00;99.90;;;;;;4997012;28;20246;-50
2021/07/14 05:53:08;;;;;;;17.37;10.77;;;18.80;99.90;;;;;;4995170;28;20623;-50
2021/07/14 05:55:35;;;;;;;18.03;11.43;;;18.90;99.90;;;;;;4995639;28;20299;-51
2021/07/14 05:58:03;;;;;;;15.47;10.10;;;18.90;99.90;;;;;;4996491;28;20290;-51
2021/07/14 06:00:30;;;;;;;20.63;11.50;;;18.90;99.90;;;;;;4991390;28;20265;-50
2021/07/14 06:02:57;;;;;;;15.70;9.47;;;18.90;99.90;;;;;;4993202;28;20252;-51
2021/07/14 06:05:27;;;;;;;16.60;10.40;;;19.00;99.90;;;;;;4993578;28;20237;-50
2021/07/14 06:07:54;;;;;;;16.20;10.87;;;19.00;99.90;;;;;;4996335;28;20630;-51
2021/07/14 06:10:21;;;;;;;13.90;10.50;;;18.90;99.90;;;;;;4993755;28;20213;-51
2021/07/14 06:12:48;;;;;;;16.37;10.03;;;19.00;99.90;;;;;;4996245;28;20355;-50
2021/07/14 06:15:14;;;;;;;15.57;10.10;;;19.00;99.90;;;;;;4995612;28;20239;-50
2021/07/14 06:17:41;;;;;;;14.30;9.80;;;18.90;99.90;;;;;;4994682;28;20258;-50
2021/07/14 06:20:09;;;;;;;17.47;10.13;;;19.00;99.90;;;;;;4996582;28;20283;-50
2021/07/14 06:22:36;;;;;;;14.13;9.63;;;18.90;99.90;;;;;;4996940;28;20304;-51
2021/07/14 06:25:04;;;;;;;14.10;10.47;;;19.00;99.90;;;;;;4995089;28;20236;-50
2021/07/14 06:27:40;;;;;;;15.90;10.00;;;19.00;99.90;;;;;;4996317;28;20296;-51
2021/07/14 06:30:11;;;;;;;15.17;10.50;;;19.10;99.90;;;;;;4994079;28;20269;-50
2021/07/14 06:32:40;;;;;;;16.00;10.60;;;19.00;99.90;;;;;;4993267;28;20225;-51
2021/07/14 06:35:09;;;;;;;15.97;11.10;;;19.00;99.90;;;;;;4995111;28;20690;-51
2021/07/14 06:37:37;;;;;;;17.80;12.53;;;18.90;99.90;;;;;;4991864;28;20294;-51
2021/07/14 06:40:06;;;;;;;20.20;12.60;;;19.00;99.90;;;;;;4997080;28;20205;-50
2021/07/14 06:42:33;;;;;;;16.30;11.17;;;19.00;99.90;;;;;;4995593;28;20240;-51
2021/07/14 06:45:00;;;;;;;17.93;11.17;;;18.90;99.90;;;;;;4996509;28;20219;-50
2021/07/14 06:47:27;;;;;;;16.20;11.03;;;18.90;99.90;;;;;;4994531;28;20290;-50
2021/07/14 06:49:54;;;;;;;16.00;11.77;;;18.90;99.90;;;;;;4992421;28;20265;-50
2021/07/14 06:52:20;;;;;;;15.67;10.60;;;18.90;99.90;;;;;;4994347;28;20245;-51
2021/07/14 06:54:47;;;;;;;17.43;11.40;;;18.90;99.90;;;;;;4993187;28;20290;-54
2021/07/14 06:57:14;;;;;;;15.23;11.13;;;18.90;99.90;;;;;;4993233;28;20245;-50
2021/07/14 06:59:41;;;;;;;15.13;11.30;;;18.80;99.90;;;;;;4995263;28;20293;-50
2021/07/14 07:02:08;;;;;;;15.00;10.40;;;19.00;99.90;;;;;;4994872;28;20264;-50
2021/07/14 07:04:35;;;;;;;14.13;10.70;;;18.90;99.90;;;;;;4995149;28;20237;-51
2021/07/14 07:07:02;;;;;;;16.77;11.33;;;18.90;99.90;;;;;;4994442;28;20659;-52
2021/07/14 07:09:29;;;;;;;15.97;11.30;;;18.90;99.90;;;;;;4990898;28;20333;-52
2021/07/14 07:11:57;;;;;;;16.63;11.57;;;19.00;99.90;;;;;;4992459;28;20257;-52
2021/07/14 07:14:23;;;;;;;16.90;10.93;;;18.90;99.90;;;;;;4994149;28;20822;-51
2021/07/14 07:16:50;;;;;;;16.97;11.87;;;18.90;99.90;;;;;;4991492;28;20229;-51
2021/07/14 07:19:18;;;;;;;17.27;11.70;;;18.90;99.90;;;;;;4994778;28;20220;-51
2021/07/14 07:21:45;;;;;;;16.37;11.40;;;18.90;99.90;;;;;;4990206;28;20304;-51
2021/07/14 07:24:11;;;;;;;17.93;12.70;;;18.90;99.90;;;;;;4992161;28;20236;-51
2021/07/14 07:26:38;;;;;;;20.47;12.80;;;18.90;99.90;;;;;;4990397;28;20290;-51
2021/07/14 07:29:10;;;;;;;22.53;15.63;;;18.90;99.90;;;;;;4999192;28;20296;-50
2021/07/14 07:31:38;;;;;;;27.83;17.80;;;18.80;99.90;;;;;;4993516;28;20610;-51
2021/07/14 07:34:05;;;;;;;23.33;15.50;;;18.90;99.90;;;;;;4991925;28;20199;-51
2021/07/14 07:36:32;;;;;;;20.70;14.50;;;18.80;99.90;;;;;;4991588;28;20233;-51
2021/07/14 07:38:59;;;;;;;25.00;15.93;;;18.90;99.90;;;;;;4996928;28;20208;-51
2021/07/14 07:41:27;;;;;;;23.80;15.17;;;18.80;99.90;;;;;;4993894;28;20210;-51
2021/07/14 07:43:55;;;;;;;25.77;16.63;;;18.80;99.90;;;;;;4996042;28;20308;-51
2021/07/14 07:46:22;;;;;;;25.13;15.93;;;18.70;99.90;;;;;;4994692;28;20237;-51
2021/07/14 07:48:49;;;;;;;22.43;14.97;;;18.70;99.90;;;;;;4994999;28;20262;-51
2021/07/14 07:51:17;;;;;;;25.87;15.40;;;18.70;99.90;;;;;;4996942;28;20209;-51
2021/07/14 07:53:44;;;;;;;27.00;15.03;;;18.80;99.90;;;;;;4994536;28;20285;-51
2021/07/14 07:56:12;;;;;;;26.23;16.50;;;18.90;99.90;;;;;;4995780;28;20644;-51
2021/07/14 07:58:39;;;;;;;27.93;16.20;;;18.80;99.90;;;;;;4994400;28;20284;-52
2021/07/14 08:01:06;;;;;;;22.13;15.80;;;18.80;99.90;;;;;;4995134;28;20265;-52
2021/07/14 08:03:33;;;;;;;28.10;16.20;;;18.70;99.90;;;;;;4991899;28;20237;-51
2021/07/14 08:06:00;;;;;;;27.13;15.27;;;18.60;99.90;;;;;;4997492;28;20267;-51
2021/07/14 08:08:27;;;;;;;24.13;15.60;;;18.70;99.90;;;;;;4993727;28;20255;-51
2021/07/14 08:10:56;;;;;;;24.17;15.23;;;18.60;99.90;;;;;;4990711;28;20352;-51
2021/07/14 08:13:24;;;;;;;25.43;15.20;;;18.60;99.90;;;;;;4994377;28;20673;-51
2021/07/14 08:15:51;;;;;;;25.33;15.53;;;18.60;99.90;;;;;;4993753;28;20318;-52
2021/07/14 08:18:18;;;;;;;27.17;16.07;;;18.70;99.90;;;;;;4994883;28;20224;-52
2021/07/14 08:20:46;;;;;;;23.50;14.97;;;18.60;99.90;;;;;;4997134;28;20299;-51
2021/07/14 08:23:13;;;;;;;24.43;14.80;;;18.70;99.90;;;;;;4995313;28;20879;-51
2021/07/14 08:25:40;;;;;;;24.20;15.37;;;18.70;99.90;;;;;;4998027;28;21485;-52
2021/07/14 08:28:07;;;;;;;28.07;16.60;;;18.70;99.90;;;;;;4994701;28;20343;-51
2021/07/14 08:30:34;;;;;;;22.97;15.03;;;18.70;99.90;;;;;;4995272;28;20293;-51
2021/07/14 08:33:01;;;;;;;23.70;16.57;;;18.60;99.90;;;;;;4994490;28;20250;-52
2021/07/14 08:35:28;;;;;;;27.07;17.07;;;18.70;99.90;;;;;;4996176;28;20299;-52
2021/07/14 08:38:39;;;;;;;26.67;17.17;;;18.60;99.90;;;;;;5059350;27;20718;-51
2021/07/14 08:41:09;;;;;;;33.80;18.10;;;18.60;99.90;;;;;;5049923;28;20259;-51
2021/07/14 08:43:41;;;;;;;27.33;16.10;;;18.70;99.90;;;;;;5047262;28;20593;-51
2021/07/14 08:46:10;;;;;;;31.43;16.57;;;18.60;99.90;;;;;;5051396;28;20264;-51
2021/07/14 08:48:38;;;;;;;28.17;17.03;;;18.60;99.90;;;;;;5050726;28;20297;-51
2021/07/14 08:51:06;;;;;;;25.50;16.07;;;18.60;99.90;;;;;;5051193;28;20386;-51
2021/07/14 08:53:33;;;;;;;31.00;18.53;;;18.70;99.90;;;;;;5046822;28;20297;-52
2021/07/14 08:56:02;;;;;;;27.40;17.80;;;18.70;99.90;;;;;;5050143;28;20527;-51
2021/07/14 08:58:30;;;;;;;26.83;16.50;;;18.70;99.90;;;;;;5049630;28;20204;-51
2021/07/14 09:00:58;;;;;;;24.83;15.50;;;18.70;99.90;;;;;;5047259;28;20227;-51
2021/07/14 09:03:27;;;;;;;28.20;17.00;;;18.80;99.90;;;;;;5048948;28;20202;-51
2021/07/14 09:05:54;;;;;;;25.53;15.80;;;18.80;99.90;;;;;;5048272;28;20339;-51
2021/07/14 09:08:21;;;;;;;26.90;16.03;;;18.80;99.90;;;;;;5045670;28;20768;-51
2021/07/14 09:10:48;;;;;;;28.77;16.47;;;18.80;99.90;;;;;;5045776;28;20463;-51
2021/07/14 09:13:15;;;;;;;27.93;15.87;;;18.80;99.90;;;;;;5047255;28;20620;-51
2021/07/14 09:15:51;;;;;;;27.93;15.77;;;18.80;99.90;;;;;;5043179;28;20577;-52
2021/07/14 09:18:22;;;;;;;23.43;14.20;;;18.80;99.90;;;;;;5043740;28;20288;-51
2021/07/14 09:20:49;;;;;;;27.80;15.33;;;18.90;99.90;;;;;;5042513;28;20866;-51
2021/07/14 09:23:19;;;;;;;24.77;15.80;;;18.90;99.90;;;;;;5043433;28;20641;-51
2021/07/14 09:25:51;;;;;;;27.47;15.60;;;18.80;99.90;;;;;;5045326;28;20208;-51
2021/07/14 09:28:20;;;;;;;22.30;15.10;;;18.90;99.90;;;;;;5046294;28;20631;-51
2021/07/14 09:30:57;;;;;;;24.77;16.27;;;18.90;99.90;;;;;;5044868;28;20555;-51
2021/07/14 09:33:24;;;;;;;23.10;14.80;;;19.00;99.90;;;;;;5044208;28;20242;-51
2021/07/14 09:35:53;;;;;;;25.47;14.97;;;19.00;99.90;;;;;;5041738;28;20236;-52
2021/07/14 09:38:26;;;;;;;22.30;14.80;;;19.00;99.90;;;;;;5043199;28;20235;-50
2021/07/14 09:40:59;;;;;;;23.47;14.73;;;19.10;99.90;;;;;;5043824;28;20353;-50
2021/07/14 09:43:32;;;;;;;27.07;16.50;;;19.10;99.90;;;;;;5045094;28;20745;-50
2021/07/14 09:46:04;;;;;;;24.77;15.80;;;19.00;99.90;;;;;;5042567;28;20202;-50
2021/07/14 09:48:46;;;;;;;24.13;16.07;;;19.10;99.90;;;;;;5039683;28;20269;-50
2021/07/14 09:51:14;;;;;;;26.43;16.90;;;19.10;99.90;;;;;;5030016;28;20601;-50
2021/07/14 09:53:43;;;;;;;26.00;16.37;;;19.00;99.90;;;;;;5027748;28;20210;-50
2021/07/14 09:56:20;;;;;;;26.57;16.77;;;19.00;99.90;;;;;;5028661;28;20228;-50
2021/07/14 09:59:00;;;;;;;27.23;17.47;;;19.00;99.90;;;;;;5030424;28;20587;-52
2021/07/14 10:01:45;;;;;;;27.13;17.77;;;19.10;99.90;;;;;;5030389;28;20639;-50
2021/07/14 10:04:23;;;;;;;26.30;15.67;;;19.00;99.90;;;;;;5028434;28;20541;-52
2021/07/14 10:07:19;;;;;;;23.40;15.80;;;19.00;99.90;;;;;;5029446;28;20684;-50
2021/07/14 10:09:47;;;;;;;23.80;16.23;;;19.10;99.90;;;;;;5028322;28;20270;-50
2021/07/14 10:12:28;;;;;;;31.00;16.17;;;19.10;99.90;;;;;;5029555;28;20692;-50
2021/07/14 10:15:16;;;;;;;27.33;15.97;;;19.00;99.90;;;;;;5030809;28;20320;-57
2021/07/14 10:17:44;;;;;;;22.93;14.57;;;18.90;99.90;;;;;;5035550;28;20299;-57
2021/07/14 10:20:37;;;;;;;22.63;14.30;;;19.10;99.90;;;;;;5035572;28;20204;-50
2021/07/14 10:23:15;;;;;;;24.60;13.50;;;19.00;99.90;;;;;;5031379;28;20210;-50
2021/07/14 10:25:44;;;;;;;18.93;13.90;;;19.00;99.90;;;;;;5032623;28;20207;-50
2021/07/14 10:28:16;;;;;;;17.80;11.93;;;19.10;99.90;;;;;;5028795;28;20234;-50
2021/07/14 10:30:43;;;;;;;18.67;12.60;;;19.10;99.90;;;;;;5034451;28;20204;-50
2021/07/14 10:33:11;;;;;;;16.17;11.57;;;19.20;99.90;;;;;;5033171;28;20227;-50
2021/07/14 10:35:42;;;;;;;17.73;10.97;;;19.30;99.90;;;;;;5025060;28;20354;-50
2021/07/14 10:38:19;;;;;;;14.27;10.50;;;19.20;99.90;;;;;;5036865;28;20234;-50
2021/07/14 10:40:48;;;;;;;15.37;10.63;;;19.10;99.90;;;;;;5034433;28;20212;-50
2021/07/14 10:43:17;;;;;;;15.83;10.60;;;19.10;99.90;;;;;;5038890;28;20638;-50
2021/07/14 10:45:49;;;;;;;15.80;10.33;;;19.30;99.90;;;;;;5034216;28;20204;-50
2021/07/14 10:48:18;;;;;;;15.43;10.10;;;19.30;99.90;;;;;;5034661;28;20318;-50
2021/07/14 10:50:47;;;;;;;15.17;10.63;;;19.30;99.90;;;;;;5034483;28;20330;-50
2021/07/14 10:53:19;;;;;;;13.33;10.20;;;19.30;99.90;;;;;;5035243;28;20210;-50
2021/07/14 10:55:47;;;;;;;14.17;10.67;;;19.20;99.90;;;;;;5039327;28;20255;-50
2021/07/14 10:58:21;;;;;;;12.37;9.90;;;19.30;99.90;;;;;;5033871;28;20306;-50
2021/07/14 11:00:48;;;;;;;12.40;10.07;;;19.40;99.90;;;;;;5035327;28;20844;-50
2021/07/14 11:03:33;;;;;;;14.03;10.27;;;19.50;99.90;;;;;;5035175;28;20278;-50
2021/07/14 11:06:01;;;;;;;14.67;10.57;;;19.50;99.90;;;;;;5055949;28;20202;-51
2021/07/14 11:08:48;;;;;;;15.20;10.53;;;19.50;99.90;;;;;;5037821;28;20604;-51
2021/07/14 11:11:20;;;;;;;13.60;9.60;;;19.40;99.90;;;;;;5036185;28;20247;-50
2021/07/14 11:13:50;;;;;;;15.10;9.57;;;19.40;99.90;;;;;;5034741;28;20225;-50
2021/07/14 11:16:30;;;;;;;13.53;10.33;;;19.30;99.90;;;;;;5027931;28;20214;-50
2021/07/14 11:19:02;;;;;;;14.77;9.97;;;19.30;99.90;;;;;;5032242;28;20314;-51
2021/07/14 11:21:57;;;;;;;13.27;9.33;;;19.50;99.90;;;;;;5037182;28;20303;-50
2021/07/14 11:24:39;;;;;;;11.43;9.10;;;19.50;99.90;;;;;;5034549;28;20197;-50
2021/07/14 11:27:18;;;;;;;13.00;10.33;;;19.60;99.90;;;;;;5034696;28;20207;-50
2021/07/14 11:29:46;;;;;;;14.67;10.50;;;19.60;99.90;;;;;;5036164;28;20303;-50
2021/07/14 11:32:35;;;;;;;12.60;9.50;;;19.70;99.90;;;;;;5035966;28;20255;-50
2021/07/14 11:35:14;;;;;;;14.70;9.77;;;19.70;99.90;;;;;;5037338;28;20216;-51
2021/07/14 11:38:04;;;;;;;17.23;10.47;;;19.70;99.90;;;;;;5033258;28;20249;-51
2021/07/14 11:40:38;;;;;;;13.13;9.63;;;19.60;99.90;;;;;;5036875;28;20277;-50
2021/07/14 11:43:11;;;;;;;17.50;11.97;;;19.60;99.90;;;;;;5035935;28;20239;-50
2021/07/14 11:45:40;;;;;;;18.43;10.97;;;19.60;99.90;;;;;;5033573;28;20204;-50
2021/07/14 11:48:12;;;;;;;17.20;12.20;;;19.50;99.90;;;;;;5033389;28;20675;-50
2021/07/14 11:50:56;;;;;;;14.80;10.97;;;19.40;99.90;;;;;;5035363;28;20254;-50
2021/07/14 11:56:02;;;;;;;13.93;9.43;;;19.40;99.90;;;;;;5034096;28;20709;-51
2021/07/14 11:58:49;;;;;;;15.43;10.97;;;19.50;99.90;;;;;;5026924;28;20563;-50
2021/07/14 12:01:20;;;;;;;15.40;11.57;;;19.50;99.90;;;;;;5033589;28;20548;-50
2021/07/14 12:04:01;;;;;;;16.00;10.40;;;19.50;99.90;;;;;;5030430;28;20561;-50
2021/07/14 12:06:38;;;;;;;17.33;11.20;;;19.50;99.90;;;;;;5033314;28;20325;-50
2021/07/14 12:09:25;;;;;;;14.53;11.20;;;19.50;99.90;;;;;;5025491;28;20199;-50
2021/07/14 12:12:02;;;;;;;14.20;10.67;;;19.50;99.90;;;;;;5031040;28;20589;-51
2021/07/14 12:14:32;;;;;;;16.60;10.37;;;19.60;99.90;;;;;;5031173;28;20233;-50
2021/07/14 12:17:01;;;;;;;14.60;11.30;;;19.60;99.90;;;;;;5029392;28;20203;-50
2021/07/14 12:19:29;;;;;;;13.00;10.27;;;19.60;99.90;;;;;;5029235;28;20656;-50
2021/07/14 12:22:02;;;;;;;14.83;9.90;;;19.70;99.90;;;;;;5029558;28;20196;-50
2021/07/14 12:24:32;;;;;;;14.20;10.47;;;19.60;99.90;;;;;;5030087;28;20199;-50
2021/07/14 12:27:03;;;;;;;13.70;10.50;;;19.70;99.90;;;;;;5036315;28;20229;-50
2021/07/14 12:29:30;;;;;;;15.00;11.13;;;19.60;99.90;;;;;;5029741;28;20252;-50
2021/07/14 12:31:58;;;;;;;13.13;10.10;;;19.70;99.90;;;;;;5029815;28;20269;-50
2021/07/14 12:34:28;;;;;;;12.13;9.60;;;19.70;99.90;;;;;;5025951;28;20307;-50
2021/07/14 12:36:57;;;;;;;11.87;10.50;;;19.60;99.90;;;;;;5028442;28;20263;-50
2021/07/14 12:39:25;;;;;;;15.97;10.00;;;19.70;99.90;;;;;;5036551;28;20311;-50
2021/07/14 12:41:58;;;;;;;15.80;10.27;;;19.70;99.90;;;;;;5028953;28;20332;-50
2021/07/14 12:44:27;;;;;;;14.20;10.67;;;19.70;99.90;;;;;;5031642;28;22432;-50
2021/07/14 12:46:54;;;;;;;12.80;9.97;;;19.60;99.90;;;;;;5030147;28;20298;-50
2021/07/14 12:49:23;;;;;;;13.47;10.80;;;19.70;99.90;;;;;;5033913;28;20326;-50
2021/07/14 12:52:20;;;;;;;14.03;9.30;;;19.80;99.90;;;;;;5032349;28;20224;-50
2021/07/14 12:54:56;;;;;;;14.50;9.17;;;19.90;99.90;;;;;;5016734;28;20216;-50
2021/07/14 12:57:30;;;;;;;13.77;10.57;;;20.00;99.90;;;;;;5026771;28;20955;-50
2021/07/14 13:00:03;;;;;;;14.20;10.10;;;20.00;99.90;;;;;;5031799;28;20667;-50